createdAt,value
2023-05-03T00:00:35.103Z,0.90
2023-05-03T00:03:04.820Z,0.93
2023-05-03T00:05:33.612Z,0.90
2023-05-03T00:08:02.358Z,0.80
2023-05-03T00:10:30.611Z,0.90
2023-05-03T00:12:58.869Z,0.90
2023-05-03T00:15:27.197Z,1.10
2023-05-03T00:17:57.113Z,0.93
2023-05-03T00:20:25.590Z,0.77
2023-05-03T00:22:53.759Z,0.77
2023-05-03T00:25:21.982Z,0.90
2023-05-03T00:27:50.309Z,0.80
2023-05-03T00:30:19.597Z,0.77
2023-05-03T00:32:47.922Z,1.00
2023-05-03T00:35:17.999Z,1.07
2023-05-03T00:37:46.632Z,0.90
2023-05-03T00:40:18.611Z,0.90
2023-05-03T00:42:47.309Z,1.00
2023-05-03T00:45:15.462Z,0.90
2023-05-03T00:47:44.190Z,1.00
2023-05-03T00:50:13.054Z,1.50
2023-05-03T00:52:42.800Z,1.20
2023-05-03T00:55:11.475Z,0.70
2023-05-03T00:57:39.878Z,0.70
2023-05-03T01:00:10.781Z,1.20
2023-05-03T01:02:39.079Z,1.10
2023-05-03T01:05:08.410Z,0.83
2023-05-03T01:07:46.730Z,1.10
2023-05-03T01:10:28.984Z,1.10
2023-05-03T01:13:03.326Z,1.17
2023-05-03T01:15:45.358Z,0.90
2023-05-03T01:18:18.067Z,0.80
2023-05-03T01:20:49.300Z,0.97
2023-05-03T01:23:36.081Z,0.90
2023-05-03T01:26:20.614Z,1.10
2023-05-03T01:28:48.942Z,1.10
2023-05-03T01:31:22.873Z,1.23
2023-05-03T01:34:01.390Z,1.10
2023-05-03T01:36:33.485Z,1.07
2023-05-03T01:39:09.421Z,1.20
2023-05-03T01:41:41.483Z,1.00
2023-05-03T01:44:12.077Z,1.23
2023-05-03T01:46:44.340Z,1.00
2023-05-03T01:49:12.641Z,1.30
2023-05-03T01:51:41.130Z,1.07
2023-05-03T01:54:09.375Z,1.10
2023-05-03T01:56:39.498Z,1.33
2023-05-03T01:59:08.225Z,1.10
2023-05-03T02:01:36.458Z,1.30
2023-05-03T02:04:05.283Z,1.40
2023-05-03T02:06:33.792Z,1.00
2023-05-03T02:09:02.041Z,1.00
2023-05-03T02:11:30.197Z,1.17
2023-05-03T02:14:00.186Z,1.40
2023-05-03T02:16:29.197Z,1.00
2023-05-03T02:18:59.870Z,1.30
2023-05-03T02:21:28.316Z,1.10
2023-05-03T02:23:56.474Z,1.50
2023-05-03T02:26:24.802Z,1.20
2023-05-03T02:28:53.466Z,1.10
2023-05-03T02:31:22.993Z,0.90
2023-05-03T02:33:51.599Z,1.10
2023-05-03T02:36:20.162Z,1.20
2023-05-03T02:38:48.673Z,1.40
2023-05-03T02:41:16.947Z,0.90
2023-05-03T02:43:45.261Z,1.10
2023-05-03T02:46:13.497Z,1.40
2023-05-03T02:48:43.207Z,1.00
2023-05-03T02:51:11.743Z,1.00
2023-05-03T02:53:39.978Z,1.13
2023-05-03T02:56:10.280Z,1.20
2023-05-03T02:58:39.188Z,1.30
2023-05-03T03:01:07.504Z,1.43
2023-05-03T03:03:35.803Z,1.00
2023-05-03T03:06:06.054Z,1.00
2023-05-03T03:08:34.175Z,1.30
2023-05-03T03:11:02.458Z,1.27
2023-05-03T03:13:30.780Z,1.30
2023-05-03T03:15:59.108Z,1.30
2023-05-03T03:18:27.347Z,1.27
2023-05-03T03:20:55.556Z,1.20
2023-05-03T03:23:25.133Z,1.10
2023-05-03T03:25:53.800Z,1.57
2023-05-03T03:28:22.413Z,1.30
2023-05-03T03:30:50.608Z,1.20
2023-05-03T03:33:19.238Z,1.37
2023-05-03T03:35:47.857Z,1.40
2023-05-03T03:38:15.982Z,1.03
2023-05-03T03:40:46.035Z,1.30
2023-05-03T03:43:14.573Z,1.67
2023-05-03T03:45:42.790Z,1.63
2023-05-03T03:48:11.206Z,1.40
2023-05-03T03:50:39.589Z,1.17
2023-05-03T03:53:09.304Z,1.73
2023-05-03T03:55:38.006Z,1.40
2023-05-03T03:58:08.083Z,1.20
2023-05-03T04:00:36.534Z,1.70
2023-05-03T04:03:07.978Z,1.50
2023-05-03T04:05:36.504Z,1.17
2023-05-03T04:08:04.788Z,1.03
2023-05-03T04:10:33.048Z,0.90
2023-05-03T04:13:01.706Z,0.97
2023-05-03T04:15:31.272Z,1.00
2023-05-03T04:17:59.575Z,1.17
2023-05-03T04:20:29.407Z,1.10
2023-05-03T04:22:57.511Z,1.10
2023-05-03T04:25:27.151Z,1.13
2023-05-03T04:27:55.693Z,1.40
2023-05-03T04:30:24.878Z,1.50
2023-05-03T04:32:56.024Z,1.00
2023-05-03T04:35:24.198Z,1.40
2023-05-03T04:37:52.335Z,1.17
2023-05-03T04:40:20.727Z,1.20
2023-05-03T04:42:48.909Z,1.20
2023-05-03T04:45:18.724Z,1.13
2023-05-03T04:47:48.855Z,1.00
2023-05-03T04:50:18.693Z,1.10
2023-05-03T04:52:46.981Z,1.20
2023-05-03T04:55:15.559Z,0.80
2023-05-03T04:57:43.940Z,1.20
2023-05-03T05:00:13.584Z,0.80
2023-05-03T05:02:42.277Z,0.70
2023-05-03T05:05:11.984Z,0.83
2023-05-03T05:07:41.493Z,0.80
2023-05-03T05:10:11.283Z,0.90
2023-05-03T05:12:39.570Z,0.83
2023-05-03T05:15:09.104Z,0.80
2023-05-03T05:17:37.647Z,0.80
2023-05-03T05:20:07.486Z,0.90
2023-05-03T05:22:35.959Z,0.87
2023-05-03T05:25:07.051Z,0.90
2023-05-03T05:27:36.167Z,0.70
2023-05-03T05:30:05.706Z,0.70
2023-05-03T05:32:34.108Z,0.73
2023-05-03T05:35:02.346Z,1.00
2023-05-03T05:37:31.018Z,0.60
2023-05-03T05:39:59.697Z,0.60
2023-05-03T05:42:29.398Z,1.17
2023-05-03T05:44:57.744Z,0.50
2023-05-03T05:47:26.071Z,0.67
2023-05-03T05:49:54.496Z,0.80
2023-05-03T05:52:23.193Z,0.90
2023-05-03T05:54:51.863Z,0.90
2023-05-03T05:57:20.017Z,0.60
2023-05-03T05:59:49.781Z,0.60
2023-05-03T06:02:18.743Z,0.70
2023-05-03T06:04:47.406Z,0.80
2023-05-03T06:07:16.169Z,0.70
2023-05-03T06:09:44.590Z,0.37
2023-05-03T06:12:12.916Z,0.60
2023-05-03T06:14:51.726Z,0.70
2023-05-03T06:17:31.452Z,0.40
2023-05-03T06:20:00.180Z,0.60
2023-05-03T06:22:28.472Z,0.70
2023-05-03T06:24:57.100Z,0.60
2023-05-03T06:27:25.949Z,0.90
2023-05-03T06:29:54.154Z,0.60
2023-05-03T06:32:23.602Z,0.50
2023-05-03T06:34:53.684Z,0.67
2023-05-03T06:37:21.834Z,0.40
2023-05-03T06:39:50.899Z,0.40
2023-05-03T06:42:19.174Z,0.70
2023-05-03T06:44:48.303Z,0.57
2023-05-03T06:47:16.791Z,0.60
2023-05-03T06:49:45.151Z,0.50
2023-05-03T06:52:15.049Z,0.57
2023-05-03T06:54:43.591Z,0.50
2023-05-03T06:57:12.467Z,0.57
2023-05-03T06:59:40.554Z,1.27
2023-05-03T07:02:08.804Z,0.60
2023-05-03T07:04:37.882Z,0.73
2023-05-03T07:07:06.627Z,0.60
2023-05-03T07:12:10.401Z,0.63
2023-05-03T07:14:39.315Z,0.60
2023-05-03T07:17:07.513Z,0.70
2023-05-03T07:19:37.244Z,0.80
2023-05-03T07:22:05.582Z,0.60
2023-05-03T07:24:35.313Z,0.70
2023-05-03T07:27:03.454Z,0.77
2023-05-03T07:29:32.813Z,0.50
2023-05-03T07:32:00.973Z,0.53
2023-05-03T07:34:29.559Z,0.50
2023-05-03T07:36:57.903Z,0.63
2023-05-03T07:39:26.065Z,0.50
2023-05-03T07:41:56.234Z,0.63
2023-05-03T07:44:25.122Z,0.60
2023-05-03T07:46:53.332Z,0.50
2023-05-03T07:49:21.575Z,0.70
2023-05-03T07:51:50.209Z,0.60
2023-05-03T07:54:18.710Z,0.60
2023-05-03T07:56:46.916Z,0.70
2023-05-03T07:59:16.582Z,0.60
2023-05-03T08:01:44.836Z,0.60
2023-05-03T08:04:13.331Z,0.50
2023-05-03T08:06:43.127Z,0.40
2023-05-03T08:09:11.704Z,0.60
2023-05-03T08:11:42.349Z,0.53
2023-05-03T08:14:12.615Z,0.70
2023-05-03T08:16:42.409Z,0.40
2023-05-03T08:19:10.691Z,0.60
2023-05-03T08:21:39.070Z,0.60
2023-05-03T08:24:08.424Z,0.60
2023-05-03T08:26:36.888Z,0.57
2023-05-03T08:29:05.465Z,0.50
2023-05-03T08:31:34.198Z,0.60
2023-05-03T08:34:07.125Z,0.60
2023-05-03T08:36:35.842Z,0.50
2023-05-03T08:39:06.445Z,0.40
2023-05-03T08:41:35.153Z,0.60
2023-05-03T08:44:05.673Z,0.67
2023-05-03T08:46:37.262Z,0.60
2023-05-03T08:49:09.089Z,0.47
2023-05-03T08:51:41.646Z,0.40
2023-05-03T08:54:09.987Z,0.60
2023-05-03T08:56:42.516Z,0.40
2023-05-03T08:59:12.649Z,0.40
2023-05-03T09:01:41.891Z,0.60
2023-05-03T09:04:13.027Z,0.60
2023-05-03T09:06:41.660Z,0.60
2023-05-03T09:09:10.409Z,0.50
2023-05-03T09:11:40.344Z,0.60
2023-05-03T09:14:12.937Z,0.50
2023-05-03T09:16:43.222Z,0.60
2023-05-03T09:19:14.471Z,0.50
2023-05-03T09:21:44.317Z,0.50
2023-05-03T09:24:16.515Z,0.50
2023-05-03T09:26:45.717Z,0.70
2023-05-03T09:29:29.176Z,0.60
2023-05-03T09:32:01.605Z,0.60
2023-05-03T09:34:31.829Z,0.43
2023-05-03T09:37:00.293Z,0.50
2023-05-03T09:39:28.973Z,0.47
2023-05-03T09:41:57.724Z,0.50
2023-05-03T09:44:42.625Z,0.93
2023-05-03T09:47:11.375Z,0.50
2023-05-03T09:49:41.342Z,0.50
2023-05-03T09:52:11.170Z,0.80
2023-05-03T09:54:40.038Z,0.70
2023-05-03T09:57:10.112Z,0.70
2023-05-03T09:59:40.096Z,1.20
2023-05-03T10:02:09.192Z,0.40
2023-05-03T10:04:44.818Z,0.30
2023-05-03T10:07:15.890Z,0.50
2023-05-03T10:09:45.547Z,0.50
2023-05-03T10:12:17.948Z,0.90
2023-05-03T10:14:49.133Z,0.47
2023-05-03T10:17:35.320Z,0.60
2023-05-03T10:20:22.964Z,0.53
2023-05-03T10:23:14.977Z,0.40
2023-05-03T10:26:17.305Z,0.60
2023-05-03T10:28:46.608Z,0.43
2023-05-03T10:31:46.879Z,0.50
2023-05-03T10:34:22.446Z,0.40
2023-05-03T10:36:54.127Z,0.40
2023-05-03T10:39:23.108Z,0.40
2023-05-03T10:41:59.888Z,0.40
2023-05-03T10:44:29.686Z,0.40
2023-05-03T10:46:58.479Z,0.40
2023-05-03T10:49:27.618Z,0.30
2023-05-03T10:51:58.771Z,0.50
2023-05-03T10:54:27.403Z,0.40
2023-05-03T10:56:59.269Z,0.40
2023-05-03T10:59:46.954Z,0.50
2023-05-03T11:02:20.653Z,0.50
2023-05-03T11:04:53.126Z,0.40
2023-05-03T11:07:23.587Z,0.30
2023-05-03T11:09:51.970Z,0.60
2023-05-03T11:12:20.870Z,0.70
2023-05-03T11:14:51.638Z,0.70
2023-05-03T11:17:19.942Z,0.50
2023-05-03T11:19:48.394Z,0.57
2023-05-03T11:22:16.665Z,0.80
2023-05-03T11:24:47.142Z,0.43
2023-05-03T11:27:16.304Z,0.30
2023-05-03T11:29:49.891Z,0.60
2023-05-03T11:32:19.688Z,0.40
2023-05-03T11:34:47.944Z,0.50
2023-05-03T11:37:17.154Z,0.47
2023-05-03T11:39:47.876Z,0.60
2023-05-03T11:42:16.188Z,0.50
2023-05-03T11:44:44.423Z,0.77
2023-05-03T11:47:12.998Z,0.50
2023-05-03T11:49:41.353Z,0.50
2023-05-03T11:52:09.685Z,0.57
2023-05-03T11:54:38.003Z,0.50
2023-05-03T11:57:15.082Z,1.00
2023-05-03T11:59:44.774Z,0.40
2023-05-03T12:02:15.255Z,0.60
2023-05-03T12:04:46.386Z,0.60
2023-05-03T12:07:18.318Z,0.40
2023-05-03T12:10:01.342Z,0.50
2023-05-03T12:12:43.410Z,0.60
2023-05-03T12:15:16.833Z,0.47
2023-05-03T12:17:49.438Z,0.50
2023-05-03T12:22:52.883Z,0.47
2023-05-03T12:25:26.876Z,0.40
2023-05-03T12:28:17.873Z,0.50
2023-05-03T12:30:47.767Z,0.40
2023-05-03T12:33:21.666Z,0.50
2023-05-03T12:35:53.433Z,0.50
2023-05-03T12:38:25.228Z,0.53
2023-05-03T12:40:55.289Z,0.50
2023-05-03T12:43:25.340Z,0.60
2023-05-03T12:46:15.471Z,0.50
2023-05-03T12:48:46.235Z,0.57
2023-05-03T12:53:48.137Z,0.60
2023-05-03T12:56:17.351Z,0.67
2023-05-03T13:02:18.501Z,0.50
2023-05-03T13:04:37.005Z,0.50
2023-05-03T13:07:00.271Z,0.50
2023-05-03T13:09:38.537Z,0.70
2023-05-03T13:12:20.561Z,0.60
2023-05-03T13:14:50.982Z,0.50
2023-05-03T13:17:22.808Z,0.57
2023-05-03T13:19:52.954Z,0.60
2023-05-03T13:22:21.149Z,0.40
2023-05-03T13:24:49.822Z,0.70
2023-05-03T13:27:19.269Z,0.50
2023-05-03T13:29:49.445Z,0.60
2023-05-03T13:32:19.485Z,0.70
2023-05-03T13:34:48.225Z,0.60
2023-05-03T13:37:18.648Z,0.50
2023-05-03T13:39:47.006Z,0.50
2023-05-03T13:42:16.188Z,0.80
2023-05-03T13:44:46.486Z,0.60
2023-05-03T13:47:14.710Z,0.60
2023-05-03T13:49:44.757Z,0.60
2023-05-03T13:52:13.102Z,0.60
2023-05-03T13:54:42.419Z,0.50
2023-05-03T13:57:10.819Z,0.30
2023-05-03T13:59:39.025Z,0.70
2023-05-03T14:02:08.164Z,0.50
2023-05-03T14:04:36.659Z,0.60
2023-05-03T14:07:06.299Z,0.40
2023-05-03T14:09:39.577Z,0.50
2023-05-03T14:12:09.293Z,0.47
2023-05-03T14:14:37.771Z,0.60
2023-05-03T14:17:06.634Z,0.50
2023-05-03T14:19:36.731Z,0.50
2023-05-03T14:22:07.015Z,0.40
2023-05-03T14:24:35.224Z,1.70
2023-05-03T14:27:03.707Z,0.60
2023-05-03T14:29:32.332Z,0.83
2023-05-03T14:32:01.156Z,0.63
2023-05-03T14:34:30.006Z,0.50
2023-05-03T14:36:58.293Z,0.50
2023-05-03T14:39:27.910Z,0.60
2023-05-03T14:41:56.624Z,0.40
2023-05-03T14:44:25.292Z,0.50
2023-05-03T14:46:54.046Z,0.40
2023-05-03T14:49:22.400Z,0.70
2023-05-03T14:51:51.123Z,0.30
2023-05-03T14:54:19.797Z,0.40
2023-05-03T14:56:49.270Z,0.43
2023-05-03T14:59:17.943Z,0.40
2023-05-03T15:01:46.265Z,0.40
2023-05-03T15:04:14.407Z,0.60
2023-05-03T15:06:43.071Z,0.50
2023-05-03T15:09:13.044Z,0.60
2023-05-03T15:11:41.460Z,0.50
2023-05-03T15:14:11.854Z,0.60
2023-05-03T15:16:40.548Z,0.60
2023-05-03T15:19:09.395Z,0.70
2023-05-03T15:21:47.219Z,0.60
2023-05-03T15:24:16.035Z,0.70
2023-05-03T15:26:44.552Z,0.40
2023-05-03T15:29:15.389Z,0.50
2023-05-03T15:31:44.022Z,0.50
2023-05-03T15:34:12.835Z,0.47
2023-05-03T15:36:41.723Z,0.60
2023-05-03T15:39:10.240Z,0.50
2023-05-03T15:41:38.759Z,0.70
2023-05-03T15:44:09.898Z,0.50
2023-05-03T15:46:42.184Z,0.70
2023-05-03T15:49:11.957Z,0.70
2023-05-03T15:51:40.384Z,0.60
2023-05-03T15:54:08.723Z,0.40
2023-05-03T15:56:38.056Z,0.50
2023-05-03T15:59:07.518Z,0.80
2023-05-03T16:01:37.331Z,0.60
2023-05-03T16:04:07.690Z,0.63
2023-05-03T16:06:36.325Z,0.60
2023-05-03T16:09:06.511Z,0.57
2023-05-03T16:11:36.018Z,0.70
2023-05-03T16:14:09.243Z,0.43
2023-05-03T16:16:39.216Z,0.63
2023-05-03T16:19:09.426Z,0.67
2023-05-03T16:21:37.534Z,0.87
2023-05-03T16:24:06.506Z,1.00
2023-05-03T16:26:35.086Z,1.00
2023-05-03T16:29:03.367Z,1.07
2023-05-03T16:31:31.961Z,0.90
2023-05-03T16:34:00.349Z,0.70
2023-05-03T16:36:30.404Z,0.70
2023-05-03T16:38:58.592Z,0.90
2023-05-03T16:41:27.232Z,1.17
2023-05-03T16:43:55.873Z,1.40
2023-05-03T16:46:24.100Z,1.13
2023-05-03T16:48:52.343Z,1.10
2023-05-03T16:51:22.500Z,1.07
2023-05-03T16:53:53.246Z,1.07
2023-05-03T16:56:21.618Z,1.17
2023-05-03T16:58:50.303Z,1.40
2023-05-03T17:01:18.870Z,1.30
2023-05-03T17:03:47.060Z,1.23
2023-05-03T17:06:16.452Z,1.10
2023-05-03T17:08:45.407Z,1.10
2023-05-03T17:11:16.149Z,1.57
2023-05-03T17:13:45.062Z,0.90
2023-05-03T17:16:15.606Z,1.40
2023-05-03T17:18:44.075Z,0.80
2023-05-03T17:21:13.034Z,2.27
2023-05-03T17:23:41.881Z,1.00
2023-05-03T17:26:11.408Z,0.90
2023-05-03T17:28:41.534Z,1.00
2023-05-03T17:31:09.874Z,1.00
2023-05-03T17:33:38.115Z,0.90
2023-05-03T17:36:06.932Z,0.80
2023-05-03T17:38:36.924Z,0.87
2023-05-03T17:41:05.965Z,0.97
2023-05-03T17:43:34.264Z,0.60
2023-05-03T17:46:10.995Z,0.70
2023-05-03T17:48:40.812Z,0.57
2023-05-03T17:51:09.727Z,0.60
2023-05-03T17:53:37.947Z,0.70
2023-05-03T17:56:06.537Z,0.93
2023-05-03T17:58:35.051Z,0.87
2023-05-03T18:01:03.351Z,0.77
2023-05-03T18:03:34.055Z,0.90
2023-05-03T18:06:02.759Z,1.07
2023-05-03T18:08:31.124Z,0.80
2023-05-03T18:10:59.386Z,0.97
2023-05-03T18:13:27.895Z,0.70
2023-05-03T18:15:56.545Z,0.90
2023-05-03T18:18:24.969Z,0.90
2023-05-03T18:21:01.192Z,0.97
2023-05-03T18:23:30.760Z,1.30
2023-05-03T18:25:59.850Z,0.90
2023-05-03T18:28:28.591Z,0.80
2023-05-03T18:30:56.842Z,0.70
2023-05-03T18:33:25.244Z,0.90
2023-05-03T18:35:54.188Z,0.80
2023-05-03T18:38:24.276Z,0.93
2023-05-03T18:40:52.445Z,0.90
2023-05-03T18:43:21.159Z,1.10
2023-05-03T18:45:49.458Z,1.00
2023-05-03T18:48:18.132Z,0.77
2023-05-03T18:50:46.377Z,0.80
2023-05-03T18:53:14.742Z,0.70
2023-05-03T18:55:44.577Z,0.87
2023-05-03T18:58:12.711Z,0.97
2023-05-03T19:00:41.637Z,0.80
2023-05-03T19:03:10.290Z,0.97
2023-05-03T19:05:38.505Z,1.00
2023-05-03T19:08:07.162Z,0.87
2023-05-03T19:10:35.363Z,1.00
2023-05-03T19:13:04.872Z,0.90
2023-05-03T19:15:33.222Z,0.90
2023-05-03T19:18:01.778Z,0.90
2023-05-03T19:20:30.390Z,0.93
2023-05-03T19:22:58.886Z,1.17
2023-05-03T19:25:27.387Z,1.07
2023-05-03T19:27:55.580Z,1.00
2023-05-03T19:30:25.106Z,1.13
2023-05-03T19:32:53.407Z,1.10
2023-05-03T19:35:21.635Z,1.00
2023-05-03T19:37:50.079Z,1.73
2023-05-03T19:40:18.552Z,0.90
2023-05-03T19:42:46.741Z,1.07
2023-05-03T19:45:14.834Z,1.13
2023-05-03T19:47:45.297Z,1.20
2023-05-03T19:50:13.798Z,1.20
2023-05-03T19:52:42.216Z,1.13
2023-05-03T19:55:11.293Z,1.00
2023-05-03T19:57:39.964Z,1.00
2023-05-03T20:00:09.824Z,1.00
2023-05-03T20:02:38.186Z,1.03
2023-05-03T20:05:08.647Z,0.90
2023-05-03T20:07:37.411Z,1.20
2023-05-03T20:10:06.695Z,1.17
2023-05-03T20:12:35.202Z,0.90
2023-05-03T20:15:03.605Z,1.57
2023-05-03T20:17:31.954Z,1.30
2023-05-03T20:20:10.332Z,1.20
2023-05-03T20:22:38.641Z,1.10
2023-05-03T20:25:08.395Z,1.20
2023-05-03T20:27:36.888Z,1.07
2023-05-03T20:30:06.419Z,1.27
2023-05-03T20:32:36.451Z,1.20
2023-05-03T20:35:04.993Z,1.57
2023-05-03T20:37:36.310Z,1.10
2023-05-03T20:40:07.164Z,1.20
2023-05-03T20:42:35.464Z,1.10
2023-05-03T20:45:04.252Z,1.30
2023-05-03T20:47:32.570Z,1.40
2023-05-03T20:50:01.947Z,1.17
2023-05-03T20:52:30.327Z,1.33
2023-05-03T20:55:00.038Z,1.50
2023-05-03T20:57:29.349Z,2.10
2023-05-03T20:59:57.522Z,1.10
2023-05-03T21:02:25.982Z,1.77
2023-05-03T21:04:54.214Z,1.40
2023-05-03T21:07:22.368Z,1.40
2023-05-03T21:09:50.892Z,1.40
2023-05-03T21:12:20.343Z,1.70
2023-05-03T21:14:48.603Z,1.70
2023-05-03T21:17:16.894Z,1.53
2023-05-03T21:19:45.124Z,1.60
2023-05-03T21:22:13.397Z,1.30
2023-05-03T21:24:42.125Z,1.33
2023-05-03T21:27:10.350Z,1.50
2023-05-03T21:29:39.868Z,1.50
2023-05-03T21:32:09.182Z,1.33
2023-05-03T21:34:37.408Z,1.60
2023-05-03T21:37:05.688Z,1.20
2023-05-03T21:39:34.039Z,1.37
2023-05-03T21:42:02.273Z,1.50
2023-05-03T21:44:30.493Z,1.40
2023-05-03T21:47:00.930Z,2.07
2023-05-03T21:49:29.312Z,1.57
2023-05-03T21:51:57.713Z,1.63
2023-05-03T21:54:26.516Z,1.73
2023-05-03T21:56:54.763Z,2.10
2023-05-03T21:59:22.949Z,1.77
2023-05-03T22:01:51.808Z,1.90
2023-05-03T22:04:21.744Z,1.80
2023-05-03T22:06:49.900Z,2.00
2023-05-03T22:09:18.226Z,1.77
2023-05-03T22:11:46.462Z,1.87
2023-05-03T22:14:14.656Z,1.63
2023-05-03T22:16:43.520Z,1.50
2023-05-03T22:19:12.022Z,1.93
2023-05-03T22:21:41.653Z,1.90
2023-05-03T22:24:10.236Z,1.60
2023-05-03T22:26:38.365Z,1.63
2023-05-03T22:29:06.572Z,2.20
2023-05-03T22:31:35.350Z,1.97
2023-05-03T22:34:03.685Z,2.23
2023-05-03T22:36:31.804Z,2.17
2023-05-03T22:39:05.436Z,1.77
2023-05-03T22:41:33.650Z,2.13
2023-05-03T22:44:01.902Z,2.13
2023-05-03T22:46:30.301Z,1.70
2023-05-03T22:48:58.495Z,1.60
2023-05-03T22:51:26.697Z,2.00
2023-05-03T22:53:55.010Z,1.87
2023-05-03T22:56:24.617Z,2.17
2023-05-03T22:58:52.846Z,2.10
2023-05-03T23:01:21.270Z,2.43
2023-05-03T23:03:49.575Z,2.23
2023-05-03T23:06:17.985Z,1.90
2023-05-03T23:08:46.510Z,2.20
2023-05-03T23:11:14.736Z,2.70
2023-05-03T23:13:44.352Z,2.37
2023-05-03T23:16:12.575Z,2.40
2023-05-03T23:18:40.835Z,2.30
2023-05-03T23:21:09.283Z,2.40
2023-05-03T23:23:37.598Z,2.40
2023-05-03T23:26:06.656Z,2.50
2023-05-03T23:28:35.578Z,2.30
2023-05-03T23:31:05.920Z,1.90
2023-05-03T23:33:34.278Z,2.20
2023-05-03T23:36:02.950Z,2.20
2023-05-03T23:38:31.386Z,2.43
2023-05-03T23:40:59.552Z,2.00
2023-05-03T23:43:27.734Z,2.30
2023-05-03T23:45:56.833Z,1.83
2023-05-03T23:48:26.490Z,2.20
2023-05-03T23:50:54.683Z,2.20
2023-05-03T23:53:23.484Z,1.87
2023-05-03T23:55:51.973Z,1.77
2023-05-03T23:58:20.064Z,2.10
